Hauptseite
METAR-TAF:

METAR-TAF

Flughäfen :

Flughafen Hamburg

Hamburg, Deutschland

Breite: 53-38N, Länge: 010-00E, Höhe: 16 m

Beobachtung

Neuester Wetterbericht von vor 8 Minuten, um 23:50 UTC
Wind 10 kt aus Südost
Temperatur -4°C
Luftfeuchtigkeit 86%
Luftdruck 1003 hPa
Sichtweite 10 km oder mehr
keine Wolken unter 1500 m und keine Kumulonimbus oder Gewitterwolken

METAR: EDDH 222350Z 14010KT CAVOK M04/M06 Q1003 NOSIG

Zeit: 00:58 (23:58 UTC)

Prognose

Neuester Wetterbericht von vor 58 Minuten, um 23:00 UTC
Gültige Prognose vom 23 um 00 UTC bis 24 um 06 UTC
Wind 8 kt aus Ost/Südost
Sichtweite 10 km oder mehr
keine Wolken unter 1500 m und keine Kumulonimbus oder Gewitterwolken

TAF: EDDH 222300Z 2300/2406 12008KT CAVOK

Wetterbeobachtungen und Prognosen von mehr als 4000 Flughäfen (METAR und TAF Bericht).

Die verfügbaren Stationen werden durch gelbe und rote Markierungen auf der Karte dargestellt.

Führen Sie die Maus auf sie, um den Namen der Station zu sehen.

Darauf klicken, um die Beobachtung von Wetterbeobachtungen und Prognosen zu sehen.

Um die Karte zu ändern : klicken Sie auf den grünen Tasten mit einem schwarzen Kreuz Zum Vergrößern, auf den grünen Button mit einem Gedankenstrich zu verkleinern, oder auf die grünen Pfeile für benachbarte Karten.


METAR-TAF: